createdAt,value
2023-10-07T00:01:29.230Z,5.09
2023-10-07T00:03:59.971Z,5.10
2023-10-07T00:06:29.264Z,5.10
2023-10-07T00:08:59.414Z,5.09
2023-10-07T00:11:28.819Z,5.06
2023-10-07T00:13:57.361Z,5.06
2023-10-07T00:16:25.781Z,5.05
2023-10-07T00:18:55.328Z,5.06
2023-10-07T00:21:29.124Z,5.05
2023-10-07T00:23:58.841Z,5.06
2023-10-07T00:26:28.270Z,5.05
2023-10-07T00:29:02.334Z,5.03
2023-10-07T00:31:34.728Z,5.03
2023-10-07T00:34:23.848Z,5.03
2023-10-07T00:36:53.027Z,5.04
2023-10-07T00:39:23.339Z,5.01
2023-10-07T00:41:59.368Z,5.00
2023-10-07T00:44:34.350Z,5.01
2023-10-07T00:47:13.868Z,5.03
2023-10-07T00:49:43.628Z,5.06
2023-10-07T00:52:15.572Z,5.09
2023-10-07T00:54:48.550Z,5.12
2023-10-07T00:57:25.351Z,5.14
2023-10-07T00:59:52.939Z,5.16
2023-10-07T01:02:31.195Z,5.18
2023-10-07T01:05:08.037Z,5.20
2023-10-07T01:07:36.182Z,5.23
2023-10-07T01:10:09.659Z,5.26
2023-10-07T01:12:40.195Z,5.31
2023-10-07T01:18:06.697Z,5.38
2023-10-07T01:21:00.865Z,5.38
2023-10-07T01:23:34.743Z,5.40
2023-10-07T01:26:03.835Z,5.42
2023-10-07T01:28:34.063Z,5.43
2023-10-07T01:31:13.860Z,5.46
2023-10-07T01:33:51.130Z,5.51
2023-10-07T01:36:25.291Z,5.56
2023-10-07T01:38:53.114Z,5.62
2023-10-07T01:41:21.380Z,5.68
2023-10-07T01:44:02.189Z,5.76
2023-10-07T01:46:31.322Z,5.83
2023-10-07T01:49:05.393Z,5.89
2023-10-07T01:51:32.705Z,5.96
2023-10-07T01:54:04.631Z,6.03
2023-10-07T01:56:33.261Z,6.10
2023-10-07T01:59:11.314Z,6.16
2023-10-07T02:01:43.256Z,6.22
2023-10-07T02:04:29.709Z,6.26
2023-10-07T02:07:00.016Z,6.30
2023-10-07T02:09:28.877Z,6.33
2023-10-07T02:11:57.813Z,6.37
2023-10-07T02:14:26.806Z,6.42
2023-10-07T02:16:55.284Z,6.45
2023-10-07T02:19:30.458Z,6.52
2023-10-07T02:22:04.336Z,6.60
2023-10-07T02:24:32.800Z,6.67
2023-10-07T02:27:08.146Z,6.72
2023-10-07T02:29:36.061Z,6.80
2023-10-07T02:32:15.802Z,6.87
2023-10-07T02:35:00.430Z,6.93
2023-10-07T02:37:30.924Z,6.99
2023-10-07T02:40:17.634Z,7.04
2023-10-07T02:42:48.104Z,7.09
2023-10-07T02:45:18.509Z,7.14
2023-10-07T02:47:51.660Z,7.17
2023-10-07T02:50:19.387Z,7.21
2023-10-07T02:52:50.850Z,7.23
2023-10-07T02:55:18.305Z,7.28
2023-10-07T02:57:46.495Z,7.33
2023-10-07T03:00:30.781Z,7.36
2023-10-07T03:03:17.059Z,7.41
2023-10-07T03:05:47.256Z,7.47
2023-10-07T03:08:21.037Z,7.52
2023-10-07T03:11:06.589Z,7.57
2023-10-07T03:13:39.620Z,7.62
2023-10-07T03:16:11.141Z,7.66
2023-10-07T03:18:39.758Z,7.70
2023-10-07T03:21:15.432Z,7.75
2023-10-07T03:23:48.958Z,7.81
2023-10-07T03:26:19.486Z,7.87
2023-10-07T03:28:53.489Z,7.92
2023-10-07T03:31:22.070Z,7.99
2023-10-07T03:33:59.393Z,8.05
2023-10-07T03:36:39.299Z,8.12
2023-10-07T03:39:15.587Z,8.20
2023-10-07T03:41:53.598Z,8.26
2023-10-07T03:44:22.071Z,8.32
2023-10-07T03:46:50.857Z,8.36
2023-10-07T03:49:22.353Z,8.41
2023-10-07T03:52:00.765Z,8.47
2023-10-07T03:54:30.935Z,8.51
2023-10-07T03:56:58.620Z,8.56
2023-10-07T03:59:26.965Z,8.60
2023-10-07T04:01:55.288Z,8.65
2023-10-07T04:04:23.705Z,8.70
2023-10-07T04:06:51.916Z,8.75
2023-10-07T04:09:19.585Z,8.77
2023-10-07T04:11:49.730Z,8.80
2023-10-07T04:14:20.922Z,8.85
2023-10-07T04:16:51.892Z,8.88
2023-10-07T04:19:19.899Z,8.91
2023-10-07T04:21:47.139Z,8.94
2023-10-07T04:24:14.566Z,8.98
2023-10-07T04:26:58.475Z,9.02
2023-10-07T04:29:28.007Z,9.06
2023-10-07T04:31:56.059Z,9.09
2023-10-07T04:34:23.618Z,9.13
2023-10-07T04:37:03.917Z,9.16
2023-10-07T04:39:47.440Z,9.19
2023-10-07T04:42:22.632Z,9.21
2023-10-07T04:44:53.354Z,9.24
2023-10-07T04:47:29.917Z,9.27
2023-10-07T04:50:06.533Z,9.31
2023-10-07T04:52:41.304Z,9.34
2023-10-07T04:55:14.836Z,9.38
2023-10-07T04:58:02.588Z,9.42
2023-10-07T05:00:32.483Z,9.47
2023-10-07T05:03:04.731Z,9.52
2023-10-07T05:05:34.444Z,9.59
2023-10-07T05:08:12.534Z,9.64
2023-10-07T05:10:42.583Z,9.69
2023-10-07T05:13:10.779Z,9.72
2023-10-07T05:15:43.200Z,9.77
2023-10-07T05:18:14.349Z,9.81
2023-10-07T05:20:43.319Z,9.85
2023-10-07T05:23:15.514Z,9.90
2023-10-07T05:25:52.371Z,9.95
2023-10-07T05:28:23.527Z,9.99
2023-10-07T05:30:51.948Z,10.04
2023-10-07T05:33:26.606Z,10.10
2023-10-07T05:36:00.759Z,10.14
2023-10-07T05:38:27.920Z,10.19
2023-10-07T05:41:00.332Z,10.21
2023-10-07T05:43:30.152Z,10.23
2023-10-07T05:45:57.477Z,10.27
2023-10-07T05:48:24.905Z,10.33
2023-10-07T05:50:54.848Z,10.38
2023-10-07T05:53:22.610Z,10.44
2023-10-07T05:55:50.305Z,10.49
2023-10-07T05:58:17.676Z,10.54
2023-10-07T06:00:46.929Z,10.58
2023-10-07T06:03:14.775Z,10.60
2023-10-07T06:05:43.437Z,10.62
2023-10-07T06:08:12.098Z,10.63
2023-10-07T06:10:39.966Z,10.66
2023-10-07T06:13:10.223Z,10.69
2023-10-07T06:15:40.965Z,10.72
2023-10-07T06:18:08.885Z,10.75
2023-10-07T06:20:39.262Z,10.79
2023-10-07T06:23:16.896Z,10.83
2023-10-07T06:25:54.192Z,10.88
2023-10-07T06:28:30.592Z,10.90
2023-10-07T06:31:26.467Z,10.92
2023-10-07T06:34:05.127Z,10.96
2023-10-07T06:36:33.258Z,10.98
2023-10-07T06:39:02.867Z,10.99
2023-10-07T06:41:30.605Z,11.01
2023-10-07T06:44:04.255Z,11.03
2023-10-07T06:46:46.178Z,11.05
2023-10-07T06:49:20.946Z,11.05
2023-10-07T06:51:55.265Z,11.08
2023-10-07T06:54:24.691Z,11.11
2023-10-07T06:56:55.622Z,11.12
2023-10-07T06:59:29.489Z,11.14
2023-10-07T07:01:58.140Z,11.15
2023-10-07T07:04:27.030Z,11.18
2023-10-07T07:07:12.574Z,11.20
2023-10-07T07:09:51.595Z,11.22
2023-10-07T07:12:22.801Z,11.21
2023-10-07T07:15:06.478Z,11.21
2023-10-07T07:17:37.263Z,11.21
2023-10-07T07:20:08.715Z,11.22
2023-10-07T07:22:40.219Z,11.25
2023-10-07T07:25:19.159Z,11.27
2023-10-07T07:27:49.401Z,11.29
2023-10-07T07:30:33.529Z,11.30
2023-10-07T07:33:16.590Z,11.32
2023-10-07T07:35:44.955Z,11.33
2023-10-07T07:38:21.787Z,11.32
2023-10-07T07:40:51.043Z,11.31
2023-10-07T07:43:20.928Z,11.31
2023-10-07T07:45:50.825Z,11.32
2023-10-07T07:48:18.198Z,11.33
2023-10-07T07:50:45.628Z,11.32
2023-10-07T07:53:14.289Z,11.31
2023-10-07T07:55:45.354Z,11.29
2023-10-07T07:58:12.712Z,11.26
2023-10-07T08:01:00.195Z,11.25
2023-10-07T08:03:27.775Z,11.23
2023-10-07T08:05:55.331Z,11.22
2023-10-07T08:08:30.957Z,11.21
2023-10-07T08:11:00.574Z,11.19
2023-10-07T08:13:29.017Z,11.18
2023-10-07T08:15:56.803Z,11.17
2023-10-07T08:18:30.331Z,11.15
2023-10-07T08:21:14.719Z,11.14
2023-10-07T08:23:42.206Z,11.15
2023-10-07T08:26:13.225Z,11.16
2023-10-07T08:29:00.313Z,11.18
2023-10-07T08:31:40.765Z,11.20
2023-10-07T08:34:09.168Z,11.22
2023-10-07T08:36:48.506Z,11.22
2023-10-07T08:39:20.708Z,11.21
2023-10-07T08:41:54.550Z,11.22
2023-10-07T08:44:29.841Z,11.23
2023-10-07T08:47:06.350Z,11.23
2023-10-07T08:49:37.293Z,11.24
2023-10-07T08:52:10.733Z,11.26
2023-10-07T08:54:45.939Z,11.27
2023-10-07T08:57:35.932Z,11.29
2023-10-07T09:00:12.589Z,11.30
2023-10-07T09:02:41.449Z,11.34
2023-10-07T09:05:17.175Z,11.40
2023-10-07T09:07:49.923Z,11.47
2023-10-07T09:10:18.766Z,11.54
2023-10-07T09:12:58.070Z,11.61
2023-10-07T09:15:29.929Z,11.69
2023-10-07T09:18:04.569Z,11.76
2023-10-07T09:20:32.978Z,11.86
2023-10-07T09:23:18.650Z,11.94
2023-10-07T09:25:48.612Z,12.02
2023-10-07T09:28:20.041Z,12.08
2023-10-07T09:30:49.718Z,12.15
2023-10-07T09:33:22.925Z,12.22
2023-10-07T09:36:11.453Z,12.30
2023-10-07T09:38:43.286Z,12.37
2023-10-07T09:41:14.598Z,12.44
2023-10-07T09:43:45.084Z,12.51
2023-10-07T09:46:18.260Z,12.58
2023-10-07T09:48:55.400Z,12.63
2023-10-07T09:51:30.111Z,12.66
2023-10-07T09:54:28.914Z,12.69
2023-10-07T09:57:31.154Z,12.74
2023-10-07T10:00:30.296Z,12.79
2023-10-07T10:03:16.908Z,12.83
2023-10-07T10:06:17.299Z,12.88
2023-10-07T10:08:58.515Z,12.94
2023-10-07T10:11:39.304Z,12.99
2023-10-07T10:14:13.200Z,13.06
2023-10-07T10:17:01.394Z,13.16
2023-10-07T10:19:30.711Z,13.26
2023-10-07T10:22:08.524Z,13.37
2023-10-07T10:24:38.306Z,13.49
2023-10-07T10:27:06.072Z,13.61
2023-10-07T10:29:38.157Z,13.70
2023-10-07T10:32:15.566Z,13.80
2023-10-07T10:34:44.112Z,13.92
2023-10-07T10:37:11.393Z,14.02
2023-10-07T10:39:42.308Z,14.13
2023-10-07T10:42:16.451Z,14.23
2023-10-07T10:44:48.718Z,14.34
2023-10-07T10:47:18.377Z,14.47
2023-10-07T10:49:46.242Z,14.58
2023-10-07T10:52:13.767Z,14.67
2023-10-07T10:54:41.094Z,14.76
2023-10-07T10:57:15.226Z,14.85
2023-10-07T10:59:44.142Z,14.93
2023-10-07T11:02:13.258Z,14.99
2023-10-07T11:04:41.757Z,15.05
2023-10-07T11:07:09.407Z,15.09
2023-10-07T11:09:40.460Z,15.16
2023-10-07T11:12:10.790Z,15.20
2023-10-07T11:14:39.616Z,15.25
2023-10-07T11:17:10.254Z,15.30
2023-10-07T11:19:44.640Z,15.35
2023-10-07T11:22:16.014Z,15.40
2023-10-07T11:24:43.339Z,15.47
2023-10-07T11:27:10.651Z,15.52
2023-10-07T11:29:37.865Z,15.58
2023-10-07T11:32:08.917Z,15.63
2023-10-07T11:34:38.596Z,15.67
2023-10-07T11:37:14.494Z,15.73
2023-10-07T11:39:46.465Z,15.77
2023-10-07T11:42:18.019Z,15.81
2023-10-07T11:44:49.658Z,15.84
2023-10-07T11:47:20.803Z,15.88
2023-10-07T11:49:48.792Z,15.92
2023-10-07T11:52:18.932Z,15.95
2023-10-07T11:54:50.116Z,15.99
2023-10-07T11:57:19.430Z,16.02
2023-10-07T11:59:47.210Z,16.05
2023-10-07T12:02:16.652Z,16.08
2023-10-07T12:04:49.625Z,16.12
2023-10-07T12:07:17.702Z,16.13
2023-10-07T12:09:49.912Z,16.13
2023-10-07T12:12:18.797Z,16.11
2023-10-07T12:14:49.042Z,16.10
2023-10-07T12:17:18.116Z,16.09
2023-10-07T12:19:45.964Z,16.08
2023-10-07T12:22:14.649Z,16.06
2023-10-07T12:24:45.084Z,16.07
2023-10-07T12:27:12.355Z,16.06
2023-10-07T12:29:40.258Z,16.06
2023-10-07T12:32:07.641Z,16.07
2023-10-07T12:34:35.314Z,16.09
2023-10-07T12:37:02.597Z,16.09
2023-10-07T12:39:39.103Z,16.11
2023-10-07T12:42:08.305Z,16.13
2023-10-07T12:44:36.237Z,16.15
2023-10-07T12:47:06.580Z,16.14
2023-10-07T12:49:34.253Z,16.12
2023-10-07T12:52:01.475Z,16.12
2023-10-07T12:54:28.671Z,16.10
2023-10-07T12:56:56.088Z,16.08
2023-10-07T12:59:24.580Z,16.05
2023-10-07T13:01:52.919Z,16.04
2023-10-07T13:04:20.878Z,16.01
2023-10-07T13:06:50.276Z,15.98
2023-10-07T13:09:17.989Z,15.96
2023-10-07T13:11:46.926Z,15.93
2023-10-07T13:14:16.178Z,15.91
2023-10-07T13:16:47.193Z,15.91
2023-10-07T13:19:18.218Z,15.94
2023-10-07T13:21:45.451Z,15.97
2023-10-07T13:24:13.216Z,16.00
2023-10-07T13:26:40.741Z,16.03
2023-10-07T13:29:12.232Z,16.04
2023-10-07T13:31:41.519Z,16.06
2023-10-07T13:35:52.927Z,16.13
2023-10-07T13:38:22.114Z,16.13
2023-10-07T13:40:50.347Z,16.16
2023-10-07T13:43:17.629Z,16.18
2023-10-07T13:45:47.214Z,16.21
2023-10-07T13:48:15.141Z,16.22
2023-10-07T13:50:42.504Z,16.26
2023-10-07T13:53:09.887Z,16.28
2023-10-07T13:55:43.179Z,16.29
2023-10-07T13:58:15.064Z,16.30
2023-10-07T14:00:55.700Z,16.30
2023-10-07T14:03:25.260Z,16.29
2023-10-07T14:05:56.635Z,16.29
2023-10-07T14:08:27.233Z,16.29
2023-10-07T14:10:58.091Z,16.30
2023-10-07T14:13:25.826Z,16.31
2023-10-07T14:15:57.663Z,16.31
2023-10-07T14:18:30.068Z,16.32
2023-10-07T14:20:58.689Z,16.33
2023-10-07T14:23:27.280Z,16.35
2023-10-07T14:25:56.249Z,16.36
2023-10-07T14:28:24.369Z,16.38
2023-10-07T14:30:52.844Z,16.39
2023-10-07T14:33:20.879Z,16.41
2023-10-07T14:35:48.821Z,16.42
2023-10-07T14:38:16.621Z,16.43
2023-10-07T14:40:45.431Z,16.43
2023-10-07T14:43:13.993Z,16.45
2023-10-07T14:45:51.372Z,16.47
2023-10-07T14:48:18.907Z,16.49
2023-10-07T14:50:46.886Z,16.50
2023-10-07T14:53:14.152Z,16.51
2023-10-07T14:55:47.680Z,16.51
2023-10-07T14:58:15.725Z,16.51
2023-10-07T15:00:54.364Z,16.49
2023-10-07T15:03:22.702Z,16.49
2023-10-07T15:05:50.135Z,16.48
2023-10-07T15:08:20.205Z,16.47
2023-10-07T15:10:50.168Z,16.46
2023-10-07T15:13:18.153Z,16.44
2023-10-07T15:15:48.294Z,16.42
2023-10-07T15:18:17.030Z,16.41
2023-10-07T15:20:44.671Z,16.41
2023-10-07T15:23:12.848Z,16.42
2023-10-07T15:25:49.780Z,16.43
2023-10-07T15:28:17.006Z,16.44
2023-10-07T15:30:49.041Z,16.46
2023-10-07T15:33:18.136Z,16.48
2023-10-07T15:35:45.544Z,16.50
2023-10-07T15:38:13.418Z,16.51
2023-10-07T15:40:41.722Z,16.51
2023-10-07T15:43:08.994Z,16.50
2023-10-07T15:45:44.733Z,16.50
2023-10-07T15:48:12.739Z,16.51
2023-10-07T15:50:40.346Z,16.51
2023-10-07T15:53:11.948Z,16.51
2023-10-07T15:55:39.898Z,16.52
2023-10-07T15:58:07.794Z,16.53
2023-10-07T16:00:35.569Z,16.53
2023-10-07T16:03:03.477Z,16.53
2023-10-07T16:05:35.376Z,16.54
2023-10-07T16:08:04.008Z,16.53
2023-10-07T16:10:31.291Z,16.52
2023-10-07T16:12:58.783Z,16.51
2023-10-07T16:15:29.021Z,16.50
2023-10-07T16:17:58.369Z,16.49
2023-10-07T16:20:26.032Z,16.46
2023-10-07T16:23:04.437Z,16.44
2023-10-07T16:25:32.934Z,16.42
2023-10-07T16:28:00.995Z,16.39
2023-10-07T16:30:31.352Z,16.36
2023-10-07T16:32:58.726Z,16.35
2023-10-07T16:35:26.126Z,16.34
2023-10-07T16:37:53.589Z,16.34
2023-10-07T16:40:20.900Z,16.32
2023-10-07T16:42:48.456Z,16.31
2023-10-07T16:45:15.660Z,16.31
2023-10-07T16:47:42.975Z,16.31
2023-10-07T16:50:10.881Z,16.32
2023-10-07T16:52:38.787Z,16.32
2023-10-07T16:55:09.365Z,16.33
2023-10-07T16:57:36.607Z,16.33
2023-10-07T17:00:06.022Z,16.34
2023-10-07T17:05:36.228Z,16.45
2023-10-07T17:08:06.471Z,16.47
2023-10-07T17:10:40.852Z,16.51
2023-10-07T17:13:10.944Z,16.55
2023-10-07T17:15:42.278Z,16.58
2023-10-07T17:18:11.170Z,16.60
2023-10-07T17:20:39.924Z,16.62
2023-10-07T17:23:08.619Z,16.62
2023-10-07T17:25:36.652Z,16.62
2023-10-07T17:28:04.803Z,16.62
2023-10-07T17:30:32.541Z,16.61
2023-10-07T17:33:03.157Z,16.61
2023-10-07T17:35:30.498Z,16.60
2023-10-07T17:37:57.895Z,16.59
2023-10-07T17:40:25.210Z,16.55
2023-10-07T17:42:53.045Z,16.54
2023-10-07T17:45:20.232Z,16.52
2023-10-07T17:47:47.909Z,16.50
2023-10-07T17:50:16.228Z,16.50
2023-10-07T17:52:43.669Z,16.49
2023-10-07T17:55:11.861Z,16.48
2023-10-07T17:57:40.155Z,16.47
2023-10-07T18:00:11.194Z,16.47
2023-10-07T18:02:43.345Z,16.48
2023-10-07T18:05:12.635Z,16.48
2023-10-07T18:07:44.246Z,16.49
2023-10-07T18:10:11.828Z,16.48
2023-10-07T18:12:40.604Z,16.48
2023-10-07T18:15:09.340Z,16.47
2023-10-07T18:17:36.689Z,16.46
2023-10-07T18:20:04.423Z,16.41
2023-10-07T18:22:31.618Z,16.38
2023-10-07T18:25:15.643Z,16.33
2023-10-07T18:27:43.546Z,16.29
2023-10-07T18:30:11.543Z,16.22
2023-10-07T18:32:39.733Z,16.16
2023-10-07T18:35:09.140Z,16.11
2023-10-07T18:37:36.758Z,16.06
2023-10-07T18:40:04.625Z,16.01
2023-10-07T18:42:31.896Z,15.96
2023-10-07T18:44:59.581Z,15.90
2023-10-07T18:47:27.445Z,15.85
2023-10-07T18:49:54.897Z,15.82
2023-10-07T18:52:23.611Z,15.77
2023-10-07T18:54:51.103Z,15.73
2023-10-07T18:57:18.476Z,15.69
2023-10-07T18:59:48.499Z,15.65
2023-10-07T19:02:15.994Z,15.62
2023-10-07T19:04:43.484Z,15.58
2023-10-07T19:07:11.216Z,15.56
2023-10-07T19:09:38.419Z,15.55
2023-10-07T19:12:06.251Z,15.51
2023-10-07T19:14:33.810Z,15.49
2023-10-07T19:17:01.344Z,15.46
2023-10-07T19:19:28.840Z,15.44
2023-10-07T19:21:57.819Z,15.41
2023-10-07T19:24:28.290Z,15.39
2023-10-07T19:26:55.612Z,15.37
2023-10-07T19:29:22.948Z,15.36
2023-10-07T19:31:50.312Z,15.35
2023-10-07T19:34:17.607Z,15.34
2023-10-07T19:36:46.334Z,15.34
2023-10-07T19:39:30.900Z,15.32
2023-10-07T19:42:04.200Z,15.31
2023-10-07T19:44:31.558Z,15.31
2023-10-07T19:46:59.099Z,15.30
2023-10-07T19:49:26.531Z,15.30
2023-10-07T19:51:53.726Z,15.28
2023-10-07T19:54:23.185Z,15.26
2023-10-07T19:56:51.556Z,15.25
2023-10-07T19:59:18.856Z,15.22
2023-10-07T20:01:46.291Z,15.22
2023-10-07T20:04:14.182Z,15.22
2023-10-07T20:06:42.567Z,15.22
2023-10-07T20:09:11.259Z,15.22
2023-10-07T20:11:39.003Z,15.21
2023-10-07T20:14:06.700Z,15.21
2023-10-07T20:16:34.835Z,15.20
2023-10-07T20:19:04.977Z,15.20
2023-10-07T20:21:32.511Z,15.19
2023-10-07T20:23:59.775Z,15.17
2023-10-07T20:26:28.330Z,15.16
2023-10-07T20:28:55.742Z,15.16
2023-10-07T20:31:23.021Z,15.15
2023-10-07T20:33:50.365Z,15.15
2023-10-07T20:36:17.579Z,15.14
2023-10-07T20:38:45.737Z,15.13
2023-10-07T20:41:13.856Z,15.12
2023-10-07T20:43:41.453Z,15.11
2023-10-07T20:46:08.896Z,15.10
2023-10-07T20:48:38.310Z,15.09
2023-10-07T20:51:15.512Z,15.09
2023-10-07T20:53:44.504Z,15.07
2023-10-07T20:56:15.568Z,15.07
2023-10-07T20:58:42.978Z,15.05
2023-10-07T21:01:21.392Z,15.04
2023-10-07T21:03:50.252Z,15.02
2023-10-07T21:06:21.644Z,15.00
2023-10-07T21:08:50.271Z,15.00
2023-10-07T21:11:18.672Z,14.98
2023-10-07T21:13:45.899Z,14.96
2023-10-07T21:16:13.234Z,14.96
2023-10-07T21:18:41.089Z,14.94
2023-10-07T21:21:15.478Z,14.92
2023-10-07T21:23:44.045Z,14.90
2023-10-07T21:26:16.421Z,14.88
2023-10-07T21:28:43.657Z,14.85
2023-10-07T21:31:10.915Z,14.84
2023-10-07T21:33:38.170Z,14.82
2023-10-07T21:36:05.726Z,14.80
2023-10-07T21:38:34.470Z,14.78
2023-10-07T21:41:01.831Z,14.78
2023-10-07T21:43:29.064Z,14.75
2023-10-07T21:45:56.346Z,14.75
2023-10-07T21:48:23.648Z,14.73
2023-10-07T21:50:50.875Z,14.70
2023-10-07T21:53:21.418Z,14.67
2023-10-07T21:55:48.768Z,14.65
2023-10-07T21:58:16.930Z,14.63
2023-10-07T22:00:44.296Z,14.62
2023-10-07T22:03:17.738Z,14.59
2023-10-07T22:05:46.079Z,14.57
2023-10-07T22:08:15.812Z,14.57
2023-10-07T22:10:45.455Z,14.54
2023-10-07T22:13:18.998Z,14.51
2023-10-07T22:16:01.683Z,14.49
2023-10-07T22:18:29.060Z,14.45
2023-10-07T22:20:56.943Z,14.41
2023-10-07T22:23:24.800Z,14.40
2023-10-07T22:25:53.113Z,14.40
2023-10-07T22:28:20.859Z,14.39
2023-10-07T22:33:26.784Z,14.38
2023-10-07T22:38:19.267Z,14.40
2023-10-07T22:40:53.019Z,14.37
2023-10-07T22:43:21.909Z,14.36
2023-10-07T22:45:50.247Z,14.34
2023-10-07T22:48:22.425Z,14.31
2023-10-07T22:51:01.327Z,14.28
2023-10-07T22:53:29.920Z,14.21
2023-10-07T22:56:00.692Z,14.15
2023-10-07T22:58:28.518Z,14.08
2023-10-07T23:00:59.044Z,14.02
2023-10-07T23:03:37.030Z,13.93
2023-10-07T23:06:16.224Z,13.87
2023-10-07T23:08:56.576Z,13.80
2023-10-07T23:11:28.630Z,13.73
2023-10-07T23:14:19.419Z,13.68
2023-10-07T23:16:53.983Z,13.61
2023-10-07T23:19:22.214Z,13.54
2023-10-07T23:21:52.318Z,13.51
2023-10-07T23:24:38.052Z,13.46
2023-10-07T23:27:13.390Z,13.41
2023-10-07T23:29:45.458Z,13.36
2023-10-07T23:32:24.249Z,13.30
2023-10-07T23:35:01.023Z,13.22
2023-10-07T23:37:31.500Z,13.13
2023-10-07T23:39:58.807Z,13.06
2023-10-07T23:42:26.627Z,13.00
2023-10-07T23:44:55.921Z,12.91
2023-10-07T23:47:26.349Z,12.86
2023-10-07T23:49:58.707Z,12.84
2023-10-07T23:52:26.872Z,12.81
2023-10-07T23:55:00.285Z,12.75
2023-10-07T23:57:31.385Z,12.70
2023-10-07T23:59:59.206Z,12.65
